createdAt,value
2023-06-01T00:00:08.280Z,98805.03
2023-06-01T00:02:35.332Z,98808.63
2023-06-01T00:05:02.741Z,98799.28
2023-06-01T00:07:31.152Z,98806.19
2023-06-01T00:09:58.225Z,98805.41
2023-06-01T00:12:25.518Z,98789.78
2023-06-01T00:14:52.560Z,98793.41
2023-06-01T00:17:20.997Z,98791.34
2023-06-01T00:19:49.002Z,98788.75
2023-06-01T00:22:16.687Z,98786.16
2023-06-01T00:24:43.735Z,98787.97
2023-06-01T00:27:10.869Z,98790.56
2023-06-01T00:29:37.923Z,98794.16
2023-06-01T00:32:05.764Z,98790.56
2023-06-01T00:34:34.158Z,98783.03
2023-06-01T00:37:01.352Z,98791.50
2023-06-01T00:39:28.383Z,98788.59
2023-06-01T00:41:57.727Z,98787.56
2023-06-01T00:44:25.668Z,98788.59
2023-06-01T00:46:52.990Z,98783.59
2023-06-01T00:49:20.146Z,98787.34
2023-06-01T00:51:48.577Z,98791.88
2023-06-01T00:54:16.045Z,98793.38
2023-06-01T00:56:43.559Z,98793.28
2023-06-01T00:59:11.067Z,98789.00
2023-06-01T01:01:38.183Z,98795.19
2023-06-01T01:04:05.413Z,98795.19
2023-06-01T01:06:49.985Z,98802.09
2023-06-01T01:09:27.435Z,98802.53
2023-06-01T01:12:00.866Z,98804.81
2023-06-01T01:14:36.748Z,98793.91
2023-06-01T01:17:11.459Z,98806.84
2023-06-01T01:19:54.640Z,98804.25
2023-06-01T01:23:00.722Z,98798.53
2023-06-01T01:25:36.701Z,98794.38
2023-06-01T01:28:25.237Z,98804.06
2023-06-01T01:30:55.197Z,98800.94
2023-06-01T01:33:22.792Z,98802.97
2023-06-01T01:35:50.775Z,98802.44
2023-06-01T01:38:17.774Z,98805.78
2023-06-01T01:40:44.831Z,98806.25
2023-06-01T01:43:12.265Z,98805.13
2023-06-01T01:45:40.996Z,98808.97
2023-06-01T01:48:18.696Z,98803.25
2023-06-01T01:50:52.909Z,98796.50
2023-06-01T01:53:24.361Z,98796.19
2023-06-01T01:55:53.628Z,98795.06
2023-06-01T01:58:20.838Z,98794.72
2023-06-01T02:00:50.706Z,98793.06
2023-06-01T02:03:18.621Z,98797.69
2023-06-01T02:05:46.059Z,98793.19
2023-06-01T02:08:13.467Z,98814.09
2023-06-01T02:10:42.041Z,98795.44
2023-06-01T02:13:09.089Z,98802.88
2023-06-01T02:15:36.337Z,98806.94
2023-06-01T02:18:04.982Z,98808.50
2023-06-01T02:20:32.017Z,98817.38
2023-06-01T02:22:59.838Z,98803.91
2023-06-01T02:25:26.945Z,98808.72
2023-06-01T02:27:53.988Z,98808.72
2023-06-01T02:30:21.594Z,98805.56
2023-06-01T02:32:49.661Z,98813.09
2023-06-01T02:35:18.625Z,98801.66
2023-06-01T02:37:45.657Z,98807.63
2023-06-01T02:40:13.443Z,98804.22
2023-06-01T02:42:41.250Z,98814.47
2023-06-01T02:45:10.022Z,98808.50
2023-06-01T02:47:37.052Z,98807.72
2023-06-01T02:50:06.090Z,98809.53
2023-06-01T02:52:37.299Z,98815.72
2023-06-01T02:55:05.974Z,98814.94
2023-06-01T02:57:53.185Z,98822.91
2023-06-01T03:00:22.753Z,98823.94
2023-06-01T03:02:50.408Z,98822.34
2023-06-01T03:05:19.236Z,98825.72
2023-06-01T03:07:54.771Z,98824.81
2023-06-01T03:10:26.197Z,98819.09
2023-06-01T03:12:59.638Z,98826.16
2023-06-01T03:15:28.402Z,98820.78
2023-06-01T03:17:55.661Z,98818.31
2023-06-01T03:20:23.713Z,98826.16
2023-06-01T03:22:50.855Z,98822.44
2023-06-01T03:25:21.170Z,98826.91
2023-06-01T03:27:48.300Z,98835.81
2023-06-01T03:30:15.802Z,98831.88
2023-06-01T03:32:44.731Z,98833.00
2023-06-01T03:35:12.878Z,98834.88
2023-06-01T03:37:43.233Z,98843.88
2023-06-01T03:40:13.678Z,98838.03
2023-06-01T03:42:46.855Z,98846.66
2023-06-01T03:45:16.676Z,98835.72
2023-06-01T03:47:44.291Z,98833.72
2023-06-01T03:50:12.071Z,98837.19
2023-06-01T03:52:39.775Z,98832.31
2023-06-01T03:55:11.886Z,98828.38
2023-06-01T03:58:04.151Z,98829.94
2023-06-01T04:00:31.770Z,98829.19
2023-06-01T04:03:02.668Z,98835.47
2023-06-01T04:05:30.114Z,98846.94
2023-06-01T04:07:57.994Z,98845.44
2023-06-01T04:10:25.120Z,98844.44
2023-06-01T04:12:53.088Z,98843.19
2023-06-01T04:15:24.752Z,98841.13
2023-06-01T04:17:51.993Z,98837.75
2023-06-01T04:20:19.306Z,98844.00
2023-06-01T04:22:47.385Z,98843.91
2023-06-01T04:25:19.450Z,98850.41
2023-06-01T04:27:48.820Z,98846.94
2023-06-01T04:30:17.783Z,98845.50
2023-06-01T04:32:49.810Z,98848.09
2023-06-01T04:35:18.449Z,98847.81
2023-06-01T04:37:45.959Z,98848.03
2023-06-01T04:40:14.725Z,98852.75
2023-06-01T04:42:56.929Z,98849.47
2023-06-01T04:45:26.725Z,98857.69
2023-06-01T04:47:58.467Z,98856.13
2023-06-01T04:50:41.793Z,98850.38
2023-06-01T04:53:08.835Z,98857.69
2023-06-01T04:55:37.813Z,98858.31
2023-06-01T04:58:06.578Z,98864.22
2023-06-01T05:00:34.512Z,98863.25
2023-06-01T05:03:04.021Z,98861.63
2023-06-01T05:05:31.502Z,98854.75
2023-06-01T05:07:58.579Z,98863.22
2023-06-01T05:10:25.990Z,98868.53
2023-06-01T05:12:53.368Z,98868.59
2023-06-01T05:15:20.748Z,98860.94
2023-06-01T05:17:50.874Z,98863.66
2023-06-01T05:20:21.707Z,98868.47
2023-06-01T05:22:53.988Z,98869.38
2023-06-01T05:25:21.202Z,98871.09
2023-06-01T05:27:48.318Z,98861.56
2023-06-01T05:30:15.736Z,98864.28
2023-06-01T05:32:44.696Z,98875.06
2023-06-01T05:35:15.922Z,98877.47
2023-06-01T05:37:46.922Z,98881.00
2023-06-01T05:40:14.441Z,98881.66
2023-06-01T05:42:41.502Z,98883.13
2023-06-01T05:45:10.717Z,98877.53
2023-06-01T05:47:37.764Z,98878.84
2023-06-01T05:50:06.613Z,98873.00
2023-06-01T05:52:34.184Z,98875.41
2023-06-01T05:55:05.435Z,98878.53
2023-06-01T05:57:32.687Z,98874.28
2023-06-01T06:00:02.014Z,98884.19
2023-06-01T06:02:30.498Z,98877.34
2023-06-01T06:04:57.597Z,98876.75
2023-06-01T06:07:24.599Z,98879.25
2023-06-01T06:09:54.243Z,98876.53
2023-06-01T06:12:25.318Z,98873.72
2023-06-01T06:14:55.404Z,98876.22
2023-06-01T06:17:22.578Z,98871.84
2023-06-01T06:19:50.583Z,98868.84
2023-06-01T06:22:17.703Z,98870.59
2023-06-01T06:24:44.876Z,98868.66
2023-06-01T06:27:14.018Z,98869.22
2023-06-01T06:29:42.760Z,98862.94
2023-06-01T06:32:10.605Z,98865.50
2023-06-01T06:34:37.708Z,98865.06
2023-06-01T06:37:06.337Z,98870.28
2023-06-01T06:39:33.411Z,98869.84
2023-06-01T06:42:02.193Z,98863.28
2023-06-01T06:44:29.246Z,98872.22
2023-06-01T06:47:02.798Z,98865.22
2023-06-01T06:49:30.207Z,98861.50
2023-06-01T06:52:00.281Z,98870.28
2023-06-01T06:54:30.032Z,98866.78
2023-06-01T06:57:00.074Z,98865.03
2023-06-01T06:59:27.252Z,98862.81
2023-06-01T07:01:54.287Z,98872.31
2023-06-01T07:04:23.612Z,98867.53
2023-06-01T07:06:52.069Z,98857.44
2023-06-01T07:09:19.705Z,98873.22
2023-06-01T07:11:48.754Z,98863.16
2023-06-01T07:14:16.033Z,98860.88
2023-06-01T07:16:43.115Z,98858.19
2023-06-01T07:19:10.725Z,98856.34
2023-06-01T07:21:43.156Z,98862.31
2023-06-01T07:24:13.225Z,98858.28
2023-06-01T07:26:40.989Z,98855.44
2023-06-01T07:29:07.998Z,98853.91
2023-06-01T07:31:36.472Z,98857.94
2023-06-01T07:34:03.819Z,98857.72
2023-06-01T07:36:38.015Z,98860.16
2023-06-01T07:39:07.711Z,98861.66
2023-06-01T07:41:34.827Z,98862.94
2023-06-01T07:44:02.087Z,98849.44
2023-06-01T07:46:29.147Z,98852.59
2023-06-01T07:48:56.477Z,98844.84
2023-06-01T07:51:23.564Z,98844.81
2023-06-01T07:53:51.087Z,98839.38
2023-06-01T07:56:19.647Z,98834.56
2023-06-01T07:58:46.725Z,98842.25
2023-06-01T08:01:14.954Z,98833.13
2023-06-01T08:03:46.863Z,98821.41
2023-06-01T08:06:14.738Z,98824.34
2023-06-01T08:08:41.842Z,98825.00
2023-06-01T08:11:10.124Z,98815.03
2023-06-01T08:13:39.019Z,98819.78
2023-06-01T08:16:06.690Z,98817.91
2023-06-01T08:18:34.245Z,98813.19
2023-06-01T08:21:05.343Z,98817.44
2023-06-01T08:23:32.559Z,98807.06
2023-06-01T08:25:59.850Z,98807.97
2023-06-01T08:28:27.708Z,98800.84
2023-06-01T08:30:57.411Z,98804.09
2023-06-01T08:33:24.514Z,98806.09
2023-06-01T08:35:51.550Z,98801.03
2023-06-01T08:38:18.595Z,98803.56
2023-06-01T08:40:46.498Z,98798.72
2023-06-01T08:43:18.630Z,98800.25
2023-06-01T08:45:48.172Z,98789.03
2023-06-01T08:48:19.200Z,98796.53
2023-06-01T08:50:50.325Z,98785.94
2023-06-01T08:53:19.789Z,98793.41
2023-06-01T08:55:49.960Z,98794.75
2023-06-01T08:58:17.164Z,98792.41
2023-06-01T09:00:44.715Z,98787.66
2023-06-01T09:03:13.229Z,98784.78
2023-06-01T09:05:41.802Z,98786.00
2023-06-01T09:08:09.290Z,98778.25
2023-06-01T09:10:36.574Z,98775.41
2023-06-01T09:13:04.465Z,98775.75
2023-06-01T09:15:34.616Z,98772.84
2023-06-01T09:18:09.150Z,98768.81
2023-06-01T09:20:38.386Z,98775.88
2023-06-01T09:23:06.869Z,98770.59
2023-06-01T09:25:34.563Z,98768.53
2023-06-01T09:28:03.486Z,98760.00
2023-06-01T09:30:40.113Z,98757.34
2023-06-01T09:33:15.800Z,98758.88
2023-06-01T09:35:44.723Z,98758.44
2023-06-01T09:38:21.153Z,98751.72
2023-06-01T09:41:00.299Z,98747.41
2023-06-01T09:43:27.907Z,98748.75
2023-06-01T09:46:09.282Z,98747.03
2023-06-01T09:48:38.035Z,98750.53
2023-06-01T09:51:06.140Z,98757.19
2023-06-01T09:53:44.888Z,98747.38
2023-06-01T09:56:12.263Z,98745.16
2023-06-01T09:58:41.934Z,98752.16
2023-06-01T10:01:10.208Z,98743.38
2023-06-01T10:03:42.681Z,98739.66
2023-06-01T10:06:11.959Z,98739.19
2023-06-01T10:08:43.622Z,98725.38
2023-06-01T10:11:10.868Z,98727.91
2023-06-01T10:13:39.980Z,98734.38
2023-06-01T10:16:10.536Z,98726.34
2023-06-01T10:18:38.102Z,98722.28
2023-06-01T10:21:07.713Z,98721.22
2023-06-01T10:23:35.798Z,98723.97
2023-06-01T10:26:12.371Z,98728.00
2023-06-01T10:28:43.194Z,98730.19
2023-06-01T10:31:39.813Z,98717.06
2023-06-01T10:34:09.496Z,98711.63
2023-06-01T10:37:15.981Z,98706.28
2023-06-01T10:39:43.348Z,98704.44
2023-06-01T10:42:37.505Z,98703.84
2023-06-01T10:45:06.669Z,98697.22
2023-06-01T10:47:47.363Z,98688.97
2023-06-01T10:50:19.594Z,98692.72
2023-06-01T10:52:47.244Z,98685.94
2023-06-01T10:55:26.648Z,98677.78
2023-06-01T10:58:25.334Z,98680.66
2023-06-01T11:00:56.684Z,98676.25
2023-06-01T11:03:47.081Z,98677.13
2023-06-01T11:06:26.988Z,98680.97
2023-06-01T11:08:59.797Z,98669.66
2023-06-01T11:11:59.709Z,98670.88
2023-06-01T11:14:32.103Z,98672.56
2023-06-01T11:17:27.812Z,98667.44
2023-06-01T11:19:58.817Z,98667.63
2023-06-01T11:22:26.175Z,98660.13
2023-06-01T11:24:56.459Z,98658.59
2023-06-01T11:27:24.895Z,98652.97
2023-06-01T11:29:53.630Z,98657.59
2023-06-01T11:32:23.601Z,98656.69
2023-06-01T11:34:52.435Z,98653.38
2023-06-01T11:37:20.666Z,98644.97
2023-06-01T11:39:49.104Z,98648.59
2023-06-01T11:42:19.743Z,98644.06
2023-06-01T11:45:00.977Z,98652.28
2023-06-01T11:47:32.210Z,98650.56
2023-06-01T11:49:59.819Z,98648.47
2023-06-01T11:52:27.155Z,98648.47
2023-06-01T11:54:54.230Z,98652.19
2023-06-01T11:57:21.316Z,98645.09
2023-06-01T11:59:53.263Z,98646.03
2023-06-01T12:02:31.499Z,98645.41
2023-06-01T12:05:07.184Z,98648.69
2023-06-01T12:07:45.345Z,98633.22
2023-06-01T12:10:15.636Z,98642.16
2023-06-01T12:12:44.439Z,98630.41
2023-06-01T12:15:12.594Z,98639.41
2023-06-01T12:17:57.915Z,98631.09
2023-06-01T12:20:34.952Z,98635.78
2023-06-01T12:23:06.506Z,98637.59
2023-06-01T12:25:34.117Z,98639.66
2023-06-01T12:28:05.847Z,98636.34
2023-06-01T12:30:35.982Z,98638.19
2023-06-01T12:33:05.789Z,98633.38
2023-06-01T12:35:34.462Z,98637.63
2023-06-01T12:38:13.705Z,98639.50
2023-06-01T12:40:41.233Z,98634.06
2023-06-01T12:43:20.202Z,98631.63
2023-06-01T12:45:49.405Z,98630.59
2023-06-01T12:48:31.037Z,98624.41
2023-06-01T12:50:59.617Z,98620.97
2023-06-01T12:53:27.038Z,98617.13
2023-06-01T12:55:54.334Z,98614.72
2023-06-01T12:58:21.430Z,98616.16
2023-06-01T13:00:57.205Z,98612.78
2023-06-01T13:03:25.498Z,98606.03
2023-06-01T13:05:53.667Z,98596.66
2023-06-01T13:08:23.290Z,98600.19
2023-06-01T13:10:51.537Z,98590.25
2023-06-01T13:13:18.720Z,98598.75
2023-06-01T13:15:46.699Z,98602.50
2023-06-01T13:18:14.236Z,98593.47
2023-06-01T13:20:41.364Z,98590.00
2023-06-01T13:23:09.211Z,98593.78
2023-06-01T13:25:39.212Z,98590.00
2023-06-01T13:28:07.619Z,98594.34
2023-06-01T13:30:34.919Z,98586.66
2023-06-01T13:33:02.848Z,98580.66
2023-06-01T13:35:29.869Z,98583.31
2023-06-01T13:37:57.065Z,98579.97
2023-06-01T13:40:25.384Z,98581.34
2023-06-01T13:42:54.826Z,98577.06
2023-06-01T13:45:22.693Z,98578.31
2023-06-01T13:47:51.517Z,98574.78
2023-06-01T13:50:19.106Z,98575.91
2023-06-01T13:52:47.261Z,98571.78
2023-06-01T13:55:15.916Z,98569.66
2023-06-01T13:57:43.143Z,98569.59
2023-06-01T14:00:13.300Z,98570.06
2023-06-01T14:02:46.382Z,98571.91
2023-06-01T14:05:19.959Z,98571.47
2023-06-01T14:07:50.958Z,98571.72
2023-06-01T14:10:18.565Z,98566.59
2023-06-01T14:12:46.386Z,98567.09
2023-06-01T14:15:14.972Z,98563.59
2023-06-01T14:17:42.150Z,98566.25
2023-06-01T14:20:10.428Z,98557.72
2023-06-01T14:22:37.457Z,98557.47
2023-06-01T14:25:05.394Z,98554.91
2023-06-01T14:27:32.448Z,98548.94
2023-06-01T14:30:01.985Z,98550.25
2023-06-01T14:32:31.329Z,98548.00
2023-06-01T14:34:58.779Z,98544.41
2023-06-01T14:37:29.623Z,98538.06
2023-06-01T14:40:06.287Z,98536.69
2023-06-01T14:42:33.283Z,98540.00
2023-06-01T14:45:06.019Z,98538.63
2023-06-01T14:47:35.271Z,98542.13
2023-06-01T14:50:02.434Z,98537.09
2023-06-01T14:52:29.608Z,98533.56
2023-06-01T14:54:56.629Z,98529.59
2023-06-01T14:57:23.912Z,98524.25
2023-06-01T15:00:02.573Z,98520.06
2023-06-01T15:02:31.529Z,98521.72
2023-06-01T15:05:00.011Z,98512.22
2023-06-01T15:07:27.300Z,98513.31
2023-06-01T15:09:54.614Z,98520.06
2023-06-01T15:12:21.933Z,98511.44
2023-06-01T15:14:50.993Z,98505.97
2023-06-01T15:17:18.431Z,98511.25
2023-06-01T15:19:46.559Z,98501.56
2023-06-01T15:22:15.278Z,98502.44
2023-06-01T15:24:42.623Z,98499.34
2023-06-01T15:27:09.682Z,98499.81
2023-06-01T15:29:36.946Z,98493.72
2023-06-01T15:32:04.507Z,98501.78
2023-06-01T15:34:31.654Z,98502.09
2023-06-01T15:36:58.895Z,98497.41
2023-06-01T15:39:27.390Z,98499.00
2023-06-01T15:44:24.703Z,98497.97
2023-06-01T15:46:52.162Z,98501.47
2023-06-01T15:49:19.644Z,98498.25
2023-06-01T15:51:46.857Z,98505.56
2023-06-01T15:54:13.907Z,98502.25
2023-06-01T15:59:10.918Z,98495.81
2023-06-01T16:01:38.187Z,98497.44
2023-06-01T16:04:05.775Z,98501.19
2023-06-01T16:06:33.251Z,98499.25
2023-06-01T16:09:00.410Z,98493.50
2023-06-01T16:11:27.693Z,98494.41
2023-06-01T16:13:56.075Z,98497.13
2023-06-01T16:16:23.303Z,98493.72
2023-06-01T16:18:50.396Z,98493.72
2023-06-01T16:21:17.560Z,98492.81
2023-06-01T16:23:44.822Z,98501.81
2023-06-01T16:26:12.097Z,98494.53
2023-06-01T16:28:39.208Z,98487.59
2023-06-01T16:31:07.682Z,98500.63
2023-06-01T16:33:34.714Z,98496.78
2023-06-01T16:36:01.828Z,98499.28
2023-06-01T16:38:28.886Z,98492.66
2023-06-01T16:40:56.030Z,98487.09
2023-06-01T16:43:23.034Z,98493.66
2023-06-01T16:45:50.238Z,98487.28
2023-06-01T16:48:18.729Z,98483.16
2023-06-01T16:50:47.009Z,98488.13
2023-06-01T16:53:17.135Z,98492.66
2023-06-01T16:55:44.282Z,98490.38
2023-06-01T16:58:11.422Z,98493.34
2023-06-01T17:00:38.705Z,98490.28
2023-06-01T17:03:05.884Z,98486.41
2023-06-01T17:05:35.161Z,98483.31
2023-06-01T17:08:02.230Z,98482.56
2023-06-01T17:10:29.349Z,98481.81
2023-06-01T17:12:56.452Z,98478.38
2023-06-01T17:15:23.501Z,98477.16
2023-06-01T17:17:50.797Z,98475.91
2023-06-01T17:20:17.875Z,98470.47
2023-06-01T17:22:46.612Z,98474.47
2023-06-01T17:25:13.766Z,98476.97
2023-06-01T17:27:49.065Z,98481.28
2023-06-01T17:30:16.338Z,98479.81
2023-06-01T17:32:43.830Z,98488.28
2023-06-01T17:35:10.987Z,98486.81
2023-06-01T17:37:38.201Z,98487.69
2023-06-01T17:40:08.255Z,98487.00
2023-06-01T17:42:35.492Z,98488.63
2023-06-01T17:45:02.576Z,98497.69
2023-06-01T17:47:29.864Z,98487.41
2023-06-01T17:49:56.961Z,98499.69
2023-06-01T17:52:23.968Z,98493.91
2023-06-01T17:54:51.022Z,98498.03
2023-06-01T17:57:19.533Z,98492.03
2023-06-01T17:59:46.624Z,98488.84
2023-06-01T18:02:13.730Z,98495.09
2023-06-01T18:04:40.784Z,98502.38
2023-06-01T18:07:08.238Z,98506.31
2023-06-01T18:09:35.252Z,98501.25
2023-06-01T18:12:02.638Z,98508.53
2023-06-01T18:14:31.248Z,98515.41
2023-06-01T18:16:58.301Z,98515.91
2023-06-01T18:19:25.659Z,98522.09
2023-06-01T18:21:52.939Z,98522.28
2023-06-01T18:24:22.942Z,98523.72
2023-06-01T18:26:51.256Z,98523.94
2023-06-01T18:29:18.316Z,98533.53
2023-06-01T18:31:47.198Z,98546.16
2023-06-01T18:34:14.363Z,98549.03
2023-06-01T18:36:41.418Z,98548.34
2023-06-01T18:39:13.034Z,98558.47
2023-06-01T18:41:42.454Z,98549.16
2023-06-01T18:44:12.766Z,98550.75
2023-06-01T18:46:39.814Z,98560.25
2023-06-01T18:49:08.865Z,98558.47
2023-06-01T18:51:36.945Z,98566.13
2023-06-01T18:54:06.248Z,98571.50
2023-06-01T18:56:33.347Z,98572.13
2023-06-01T18:59:00.546Z,98577.19
2023-06-01T19:01:29.795Z,98569.47
2023-06-01T19:03:56.917Z,98568.81
2023-06-01T19:06:25.448Z,98565.25
2023-06-01T19:08:52.945Z,98562.22
2023-06-01T19:11:20.048Z,98574.06
2023-06-01T19:13:48.224Z,98578.56
2023-06-01T19:16:17.380Z,98561.91
2023-06-01T19:18:48.868Z,98563.56
2023-06-01T19:21:18.632Z,98563.59
2023-06-01T19:23:49.277Z,98558.44
2023-06-01T19:26:19.934Z,98550.91
2023-06-01T19:28:50.601Z,98560.34
2023-06-01T19:31:21.746Z,98562.75
2023-06-01T19:33:49.671Z,98564.34
2023-06-01T19:36:53.903Z,98566.22
2023-06-01T19:39:36.241Z,98565.75
2023-06-01T19:42:08.716Z,98557.47
2023-06-01T19:44:36.488Z,98566.66
2023-06-01T19:47:04.645Z,98586.03
2023-06-01T19:49:36.977Z,98580.84
2023-06-01T19:52:08.129Z,98577.50
2023-06-01T19:54:37.803Z,98577.25
2023-06-01T19:57:06.578Z,98579.38
2023-06-01T19:59:33.842Z,98575.72
2023-06-01T20:02:02.446Z,98575.22
2023-06-01T20:04:32.121Z,98576.81
2023-06-01T20:07:01.178Z,98570.88
2023-06-01T20:09:28.210Z,98572.72
2023-06-01T20:11:57.794Z,98581.63
2023-06-01T20:14:27.742Z,98573.38
2023-06-01T20:16:55.550Z,98569.22
2023-06-01T20:19:24.097Z,98569.25
2023-06-01T20:21:53.653Z,98563.50
2023-06-01T20:24:24.414Z,98566.69
2023-06-01T20:26:58.203Z,98557.31
2023-06-01T20:29:27.340Z,98561.00
2023-06-01T20:31:56.628Z,98559.97
2023-06-01T20:34:25.466Z,98561.81
2023-06-01T20:36:52.925Z,98567.28
2023-06-01T20:39:20.829Z,98558.19
2023-06-01T20:41:48.719Z,98555.31
2023-06-01T20:44:18.849Z,98564.97
2023-06-01T20:46:46.979Z,98560.53
2023-06-01T20:49:14.037Z,98562.91
2023-06-01T20:51:42.637Z,98565.00
2023-06-01T20:54:11.434Z,98558.25
2023-06-01T20:56:40.367Z,98559.28
2023-06-01T20:59:10.276Z,98566.59
2023-06-01T21:01:41.210Z,98555.91
2023-06-01T21:04:10.210Z,98570.22
2023-06-01T21:06:37.742Z,98571.00
2023-06-01T21:09:07.719Z,98565.28
2023-06-01T21:11:35.125Z,98559.56
2023-06-01T21:14:02.497Z,98560.09
2023-06-01T21:16:29.786Z,98559.56
2023-06-01T21:18:58.352Z,98563.19
2023-06-01T21:21:25.609Z,98556.44
2023-06-01T21:23:54.132Z,98557.72
2023-06-01T21:26:25.321Z,98551.47
2023-06-01T21:28:53.152Z,98560.09
2023-06-01T21:31:21.463Z,98555.13
2023-06-01T21:33:48.636Z,98563.47
2023-06-01T21:36:17.207Z,98564.22
2023-06-01T21:38:44.667Z,98564.75
2023-06-01T21:41:12.109Z,98567.63
2023-06-01T21:43:39.230Z,98560.09
2023-06-01T21:46:06.892Z,98560.59
2023-06-01T21:48:34.210Z,98565.00
2023-06-01T21:51:01.590Z,98563.19
2023-06-01T21:53:30.422Z,98564.22
2023-06-01T21:55:57.865Z,98562.41
2023-06-01T21:58:25.659Z,98564.47
2023-06-01T22:00:53.849Z,98559.28
2023-06-01T22:03:22.611Z,98560.59
2023-06-01T22:05:51.570Z,98561.63
2023-06-01T22:08:18.893Z,98559.53
2023-06-01T22:10:47.369Z,98555.38
2023-06-01T22:13:14.481Z,98552.75
2023-06-01T22:15:41.744Z,98559.00
2023-06-01T22:18:09.334Z,98556.34
2023-06-01T22:20:36.532Z,98556.84
2023-06-01T22:23:04.049Z,98550.59
2023-06-01T22:25:31.398Z,98553.19
2023-06-01T22:27:59.892Z,98546.69
2023-06-01T22:30:29.185Z,98547.47
2023-06-01T22:32:56.593Z,98549.25
2023-06-01T22:35:23.870Z,98543.28
2023-06-01T22:37:51.018Z,98547.41
2023-06-01T22:40:18.106Z,98550.78
2023-06-01T22:42:45.290Z,98554.69
2023-06-01T22:45:14.168Z,98552.84
2023-06-01T22:47:41.343Z,98561.88
2023-06-01T22:50:10.668Z,98547.84
2023-06-01T22:52:39.424Z,98557.19
2023-06-01T22:55:07.296Z,98547.28
2023-06-01T22:57:37.829Z,98543.66
2023-06-01T23:00:08.687Z,98546.50
2023-06-01T23:02:37.419Z,98545.19
2023-06-01T23:05:06.302Z,98546.97
2023-06-01T23:07:33.664Z,98536.06
2023-06-01T23:10:01.406Z,98542.00
2023-06-01T23:12:28.818Z,98544.06
2023-06-01T23:14:56.407Z,98535.50
2023-06-01T23:17:25.386Z,98539.38
2023-06-01T23:19:54.048Z,98537.81
2023-06-01T23:22:21.743Z,98531.78
2023-06-01T23:24:48.983Z,98529.41
2023-06-01T23:27:16.198Z,98537.22
2023-06-01T23:29:43.469Z,98536.16
2023-06-01T23:32:10.986Z,98539.78
2023-06-01T23:34:38.284Z,98553.03
2023-06-01T23:37:07.025Z,98549.63
2023-06-01T23:39:34.151Z,98544.44
2023-06-01T23:42:01.334Z,98545.47
2023-06-01T23:44:28.600Z,98549.13
2023-06-01T23:46:55.690Z,98545.97
2023-06-01T23:49:22.773Z,98548.06
2023-06-01T23:51:50.169Z,98535.56
2023-06-01T23:54:18.656Z,98542.56
2023-06-01T23:56:45.784Z,98533.41
2023-06-01T23:59:13.588Z,98535.97
